createdAt,value
2023-03-22T00:00:21.379Z,8.82
2023-03-22T00:01:10.795Z,8.78
2023-03-22T00:01:58.944Z,8.74
2023-03-22T00:02:46.088Z,8.74
2023-03-22T00:03:33.177Z,8.72
2023-03-22T00:04:20.270Z,8.71
2023-03-22T00:05:07.698Z,8.69
2023-03-22T00:05:58.658Z,8.71
2023-03-22T00:06:45.909Z,8.69
2023-03-22T00:07:32.973Z,8.60
2023-03-22T00:08:19.958Z,8.57
2023-03-22T00:09:07.037Z,8.58
2023-03-22T00:09:54.039Z,8.65
2023-03-22T00:10:42.068Z,8.71
2023-03-22T00:11:29.123Z,8.68
2023-03-22T00:12:16.222Z,8.71
2023-03-22T00:13:03.381Z,8.75
2023-03-22T00:13:52.811Z,8.74
2023-03-22T00:14:39.756Z,8.75
2023-03-22T00:15:29.804Z,8.71
2023-03-22T00:16:17.735Z,8.67
2023-03-22T00:17:04.755Z,8.63
2023-03-22T00:17:52.093Z,8.66
2023-03-22T00:18:39.102Z,8.46
2023-03-22T00:19:26.871Z,8.25
2023-03-22T00:20:13.977Z,8.20
2023-03-22T00:21:01.241Z,8.16
2023-03-22T00:21:48.257Z,8.31
2023-03-22T00:22:35.288Z,8.39
2023-03-22T00:23:23.430Z,8.51
2023-03-22T00:24:10.473Z,8.53
2023-03-22T00:24:57.499Z,8.57
2023-03-22T00:25:45.469Z,8.63
2023-03-22T00:26:32.490Z,8.62
2023-03-22T00:27:19.346Z,8.62
2023-03-22T00:28:06.368Z,8.50
2023-03-22T00:28:53.290Z,8.37
2023-03-22T00:29:40.293Z,8.37
2023-03-22T00:30:27.228Z,8.19
2023-03-22T00:31:14.338Z,8.18
2023-03-22T00:32:01.469Z,8.02
2023-03-22T00:32:48.448Z,8.12
2023-03-22T00:33:36.567Z,8.08
2023-03-22T00:34:23.721Z,8.14
2023-03-22T00:35:12.014Z,8.03
2023-03-22T00:36:01.476Z,8.00
2023-03-22T00:36:48.754Z,8.14
2023-03-22T00:37:38.886Z,8.16
2023-03-22T00:38:41.257Z,8.22
2023-03-22T00:39:28.874Z,8.21
2023-03-22T00:40:18.147Z,8.22
2023-03-22T00:41:25.608Z,8.26
2023-03-22T00:42:12.566Z,8.24
2023-03-22T00:43:00.011Z,8.30
2023-03-22T00:43:47.743Z,8.24
2023-03-22T00:44:34.851Z,8.31
2023-03-22T00:45:21.841Z,8.28
2023-03-22T00:46:09.876Z,8.25
2023-03-22T00:46:56.970Z,8.25
2023-03-22T00:47:43.998Z,8.22
2023-03-22T00:48:31.544Z,8.18
2023-03-22T00:49:19.201Z,8.21
2023-03-22T00:50:07.533Z,8.18
2023-03-22T00:50:54.562Z,8.20
2023-03-22T00:51:41.485Z,8.26
2023-03-22T00:52:29.854Z,8.34
2023-03-22T00:53:17.150Z,8.34
2023-03-22T00:54:04.162Z,8.31
2023-03-22T00:54:51.652Z,8.32
2023-03-22T00:55:38.651Z,8.34
2023-03-22T00:56:29.173Z,8.32
2023-03-22T00:57:16.590Z,8.29
2023-03-22T00:58:03.681Z,8.09
2023-03-22T00:58:50.791Z,8.04
2023-03-22T00:59:39.088Z,7.99
2023-03-22T01:00:26.364Z,7.88
2023-03-22T01:01:16.592Z,7.90
2023-03-22T01:02:04.492Z,7.97
2023-03-22T01:02:53.511Z,8.03
2023-03-22T01:03:41.640Z,8.11
2023-03-22T01:04:28.883Z,8.18
2023-03-22T01:05:16.292Z,8.15
2023-03-22T01:06:03.890Z,8.14
2023-03-22T01:06:50.860Z,8.18
2023-03-22T01:07:39.842Z,8.17
2023-03-22T01:08:33.244Z,8.18
2023-03-22T01:09:24.185Z,8.14
2023-03-22T01:10:12.401Z,8.08
2023-03-22T01:10:59.822Z,8.13
2023-03-22T01:11:46.852Z,8.17
2023-03-22T01:12:33.889Z,8.15
2023-03-22T01:13:20.946Z,8.25
2023-03-22T01:14:09.976Z,8.30
2023-03-22T01:14:57.193Z,8.36
2023-03-22T01:15:44.229Z,8.38
2023-03-22T01:16:31.250Z,8.30
2023-03-22T01:17:18.352Z,8.31
2023-03-22T01:18:05.803Z,8.30
2023-03-22T01:18:52.797Z,8.04
2023-03-22T01:19:40.126Z,8.12
2023-03-22T01:20:27.860Z,8.13
2023-03-22T01:21:14.872Z,8.15
2023-03-22T01:22:02.516Z,8.20
2023-03-22T01:22:49.575Z,8.21
2023-03-22T01:23:37.122Z,8.23
2023-03-22T01:24:24.508Z,8.27
2023-03-22T01:25:11.618Z,8.24
2023-03-22T01:25:58.688Z,8.20
2023-03-22T01:26:45.938Z,8.20
2023-03-22T01:27:32.921Z,8.21
2023-03-22T01:28:19.966Z,8.14
2023-03-22T01:29:06.978Z,8.02
2023-03-22T01:29:53.947Z,7.87
2023-03-22T01:30:41.676Z,7.78
2023-03-22T01:31:28.993Z,7.82
2023-03-22T01:32:16.114Z,7.82
2023-03-22T01:33:03.106Z,7.91
2023-03-22T01:33:50.177Z,8.01
2023-03-22T01:34:37.165Z,8.08
2023-03-22T01:35:24.473Z,8.11
2023-03-22T01:36:11.738Z,8.14
2023-03-22T01:36:58.726Z,8.18
2023-03-22T01:37:45.949Z,8.12
2023-03-22T01:38:33.009Z,8.18
2023-03-22T01:39:20.060Z,8.15
2023-03-22T01:40:07.677Z,8.09
2023-03-22T01:40:54.796Z,8.16
2023-03-22T01:41:41.840Z,8.24
2023-03-22T01:42:28.931Z,8.24
2023-03-22T01:43:17.425Z,8.30
2023-03-22T01:44:18.380Z,8.35
2023-03-22T01:45:14.074Z,8.39
2023-03-22T01:46:01.184Z,8.38
2023-03-22T01:46:49.844Z,8.39
2023-03-22T01:47:37.834Z,8.45
2023-03-22T01:48:37.479Z,8.45
2023-03-22T01:49:32.269Z,8.41
2023-03-22T01:50:20.064Z,8.40
2023-03-22T01:51:13.747Z,8.42
2023-03-22T01:52:12.091Z,8.41
2023-03-22T01:52:59.855Z,8.34
2023-03-22T01:53:49.523Z,8.40
2023-03-22T01:54:45.069Z,8.44
2023-03-22T01:55:33.552Z,8.36
2023-03-22T01:56:23.203Z,8.37
2023-03-22T01:57:10.263Z,8.37
2023-03-22T01:57:57.219Z,8.27
2023-03-22T01:58:44.123Z,8.14
2023-03-22T01:59:31.435Z,8.06
2023-03-22T02:00:19.344Z,8.13
2023-03-22T02:01:08.527Z,8.18
2023-03-22T02:01:56.000Z,8.24
2023-03-22T02:02:44.462Z,8.29
2023-03-22T02:03:57.781Z,8.30
2023-03-22T02:04:46.322Z,8.36
2023-03-22T02:05:35.129Z,8.28
2023-03-22T02:06:22.426Z,8.18
2023-03-22T02:07:15.872Z,8.06
2023-03-22T02:08:04.164Z,8.04
2023-03-22T02:08:53.252Z,8.10
2023-03-22T02:09:41.695Z,8.03
2023-03-22T02:10:28.992Z,8.09
2023-03-22T02:11:28.342Z,8.21
2023-03-22T02:12:20.800Z,8.11
2023-03-22T02:13:39.179Z,8.14
2023-03-22T02:15:03.921Z,8.26
2023-03-22T02:16:16.118Z,8.18
2023-03-22T02:17:30.322Z,8.26
2023-03-22T02:18:22.377Z,8.30
2023-03-22T02:19:31.172Z,8.35
2023-03-22T02:20:33.242Z,8.39
2023-03-22T02:21:36.243Z,8.25
2023-03-22T02:22:58.540Z,8.17
2023-03-22T02:24:24.973Z,8.10
2023-03-22T02:25:46.129Z,8.27
2023-03-22T02:26:59.647Z,8.15
2023-03-22T02:28:04.630Z,8.22
2023-03-22T02:29:22.782Z,8.27
2023-03-22T02:30:50.764Z,8.39
2023-03-22T02:32:25.894Z,8.43
2023-03-22T02:33:27.526Z,8.29
2023-03-22T02:34:36.122Z,8.10
2023-03-22T02:35:54.221Z,8.13
2023-03-22T02:36:47.519Z,8.24
2023-03-22T02:38:12.328Z,8.34
2023-03-22T02:39:17.980Z,8.42
2023-03-22T02:40:05.852Z,8.45
2023-03-22T02:41:12.522Z,8.46
2023-03-22T02:42:41.414Z,8.44
2023-03-22T02:43:39.025Z,8.38
2023-03-22T02:45:01.441Z,8.31
2023-03-22T02:45:54.711Z,8.38
2023-03-22T02:46:52.008Z,8.41
2023-03-22T02:47:57.034Z,8.37
2023-03-22T02:48:54.671Z,8.30
2023-03-22T02:49:47.747Z,8.23
2023-03-22T02:50:46.789Z,8.20
2023-03-22T02:51:41.874Z,8.24
2023-03-22T02:52:33.464Z,8.26
2023-03-22T02:53:23.475Z,8.30
2023-03-22T02:54:18.680Z,8.38
2023-03-22T02:55:12.860Z,8.48
2023-03-22T02:56:02.864Z,8.49
2023-03-22T02:57:19.461Z,8.41
2023-03-22T02:58:47.330Z,8.39
2023-03-22T02:59:38.420Z,8.33
2023-03-22T03:00:27.346Z,8.35
2023-03-22T03:01:32.829Z,8.28
2023-03-22T03:02:21.146Z,8.24
2023-03-22T03:03:12.076Z,8.31
2023-03-22T03:04:01.787Z,8.39
2023-03-22T03:04:50.337Z,8.44
2023-03-22T03:05:40.582Z,8.49
2023-03-22T03:06:31.318Z,8.52
2023-03-22T03:07:23.234Z,8.50
2023-03-22T03:08:11.488Z,8.50
2023-03-22T03:09:02.853Z,8.52
2023-03-22T03:09:50.849Z,8.53
2023-03-22T03:10:39.746Z,8.47
2023-03-22T03:11:26.830Z,8.47
2023-03-22T03:12:16.710Z,8.30
2023-03-22T03:13:03.888Z,8.25
2023-03-22T03:13:51.491Z,8.21
2023-03-22T03:14:38.478Z,8.19
2023-03-22T03:15:26.212Z,8.18
2023-03-22T03:16:17.862Z,8.24
2023-03-22T03:17:10.790Z,8.35
2023-03-22T03:18:27.711Z,8.47
2023-03-22T03:19:29.951Z,8.53
2023-03-22T03:20:35.619Z,8.54
2023-03-22T03:21:54.356Z,8.48
2023-03-22T03:22:53.842Z,8.31
2023-03-22T03:23:53.310Z,8.39
2023-03-22T03:24:48.628Z,8.35
2023-03-22T03:25:43.643Z,8.30
2023-03-22T03:26:55.823Z,8.29
2023-03-22T03:28:13.119Z,8.43
2023-03-22T03:29:05.626Z,8.40
2023-03-22T03:30:05.701Z,8.41
2023-03-22T03:31:08.421Z,8.46
2023-03-22T03:32:05.512Z,8.46
2023-03-22T03:33:05.321Z,8.36
2023-03-22T03:33:58.966Z,8.37
2023-03-22T03:34:58.122Z,8.38
2023-03-22T03:35:50.174Z,8.32
2023-03-22T03:36:41.047Z,8.25
2023-03-22T03:37:34.270Z,8.21
2023-03-22T03:38:27.458Z,8.15
2023-03-22T03:39:16.314Z,8.24
2023-03-22T03:40:11.409Z,8.35
2023-03-22T03:41:14.380Z,8.37
2023-03-22T03:42:02.321Z,8.39
2023-03-22T03:42:52.059Z,8.42
2023-03-22T03:43:39.663Z,8.41
2023-03-22T03:44:27.316Z,8.40
2023-03-22T03:45:16.032Z,8.38
2023-03-22T03:46:03.298Z,8.36
2023-03-22T03:46:51.459Z,8.33
2023-03-22T03:47:38.552Z,8.37
2023-03-22T03:48:29.052Z,8.32
2023-03-22T03:49:17.234Z,8.29
2023-03-22T03:50:08.484Z,8.27
2023-03-22T03:50:56.912Z,8.31
2023-03-22T03:51:55.351Z,8.36
2023-03-22T03:52:42.930Z,8.39
2023-03-22T03:53:30.772Z,8.43
2023-03-22T03:54:18.221Z,8.43
2023-03-22T03:55:05.571Z,8.28
2023-03-22T03:55:52.558Z,8.34
2023-03-22T03:56:39.547Z,8.37
2023-03-22T03:57:26.511Z,8.24
2023-03-22T03:58:13.451Z,8.16
2023-03-22T03:59:00.662Z,8.21
2023-03-22T03:59:47.702Z,8.10
2023-03-22T04:00:34.703Z,8.21
2023-03-22T04:01:21.718Z,8.28
2023-03-22T04:02:08.968Z,8.31
2023-03-22T04:02:56.117Z,8.36
2023-03-22T04:03:43.124Z,8.36
2023-03-22T04:04:30.330Z,8.33
2023-03-22T04:05:17.396Z,8.34
2023-03-22T04:06:04.473Z,8.29
2023-03-22T04:06:52.174Z,8.27
2023-03-22T04:07:39.770Z,8.26
2023-03-22T04:08:27.319Z,8.31
2023-03-22T04:09:14.361Z,8.37
2023-03-22T04:10:01.397Z,8.41
2023-03-22T04:10:52.486Z,8.51
2023-03-22T04:11:39.448Z,8.45
2023-03-22T04:12:26.483Z,8.45
2023-03-22T04:13:13.513Z,8.49
2023-03-22T04:14:00.503Z,8.53
2023-03-22T04:14:47.511Z,8.51
2023-03-22T04:15:34.483Z,8.48
2023-03-22T04:16:21.559Z,8.42
2023-03-22T04:17:09.782Z,8.39
2023-03-22T04:17:57.310Z,8.39
2023-03-22T04:18:44.536Z,8.43
2023-03-22T04:19:31.632Z,8.39
2023-03-22T04:20:19.769Z,8.28
2023-03-22T04:21:07.267Z,8.28
2023-03-22T04:21:54.688Z,8.31
2023-03-22T04:22:42.553Z,8.27
2023-03-22T04:23:29.612Z,8.21
2023-03-22T04:24:16.612Z,8.30
2023-03-22T04:25:03.924Z,8.33
2023-03-22T04:25:50.874Z,8.33
2023-03-22T04:26:38.122Z,8.36
2023-03-22T04:27:25.091Z,8.38
2023-03-22T04:28:13.912Z,8.44
2023-03-22T04:29:03.217Z,8.36
2023-03-22T04:29:51.325Z,8.39
2023-03-22T04:30:39.184Z,8.45
2023-03-22T04:31:26.562Z,8.49
2023-03-22T04:32:13.594Z,8.52
2023-03-22T04:33:01.563Z,8.48
2023-03-22T04:33:50.008Z,8.40
2023-03-22T04:34:37.059Z,8.24
2023-03-22T04:35:24.808Z,8.17
2023-03-22T04:36:16.292Z,8.21
2023-03-22T04:37:03.353Z,8.25
2023-03-22T04:37:51.917Z,8.18
2023-03-22T04:38:39.780Z,8.18
2023-03-22T04:39:26.892Z,8.32
2023-03-22T04:40:17.448Z,8.38
2023-03-22T04:41:05.744Z,8.41
2023-03-22T04:41:52.654Z,8.39
2023-03-22T04:42:39.651Z,8.39
2023-03-22T04:43:27.651Z,8.37
2023-03-22T04:44:14.740Z,8.27
2023-03-22T04:45:04.166Z,8.21
2023-03-22T04:45:51.119Z,8.22
2023-03-22T04:46:38.660Z,8.29
2023-03-22T04:47:25.783Z,8.31
2023-03-22T04:48:12.832Z,8.40
2023-03-22T04:49:00.161Z,8.45
2023-03-22T04:49:47.174Z,8.41
2023-03-22T04:50:34.082Z,8.35
2023-03-22T04:51:21.178Z,8.41
2023-03-22T04:52:08.390Z,8.45
2023-03-22T04:52:55.550Z,8.39
2023-03-22T04:53:42.631Z,8.46
2023-03-22T04:54:29.614Z,8.36
2023-03-22T04:55:16.813Z,8.25
2023-03-22T04:56:05.860Z,8.21
2023-03-22T04:56:53.185Z,8.23
2023-03-22T04:57:40.149Z,8.30
2023-03-22T04:58:27.514Z,8.35
2023-03-22T04:59:14.962Z,8.18
2023-03-22T05:00:01.953Z,8.11
2023-03-22T05:00:48.991Z,8.06
2023-03-22T05:01:36.186Z,8.13
2023-03-22T05:02:23.182Z,8.13
2023-03-22T05:03:10.617Z,8.22
2023-03-22T05:03:57.647Z,8.37
2023-03-22T05:04:45.082Z,8.46
2023-03-22T05:05:32.240Z,8.50
2023-03-22T05:06:19.204Z,8.53
2023-03-22T05:07:06.362Z,8.54
2023-03-22T05:07:53.351Z,8.58
2023-03-22T05:08:40.571Z,8.62
2023-03-22T05:09:27.602Z,8.66
2023-03-22T05:10:14.791Z,8.68
2023-03-22T05:11:07.783Z,8.71
2023-03-22T05:11:54.714Z,8.70
2023-03-22T05:12:41.700Z,8.68
2023-03-22T05:13:28.632Z,8.61
2023-03-22T05:14:15.874Z,8.66
2023-03-22T05:15:04.489Z,8.69
2023-03-22T05:15:52.306Z,8.71
2023-03-22T05:16:42.079Z,8.66
2023-03-22T05:17:29.050Z,8.63
2023-03-22T05:18:16.911Z,8.66
2023-03-22T05:19:04.160Z,8.63
2023-03-22T05:19:52.113Z,8.72
2023-03-22T05:20:39.413Z,8.80
2023-03-22T05:21:29.984Z,8.89
2023-03-22T05:22:17.471Z,8.95
2023-03-22T05:23:05.380Z,8.97
2023-03-22T05:23:52.421Z,9.02
2023-03-22T05:24:39.453Z,9.05
2023-03-22T05:25:26.456Z,9.07
2023-03-22T05:26:16.269Z,9.11
2023-03-22T05:27:04.027Z,9.11
2023-03-22T05:27:54.437Z,9.14
2023-03-22T05:28:41.730Z,9.06
2023-03-22T05:29:29.109Z,9.09
2023-03-22T05:30:16.977Z,9.14
2023-03-22T05:31:05.834Z,9.16
2023-03-22T05:31:52.958Z,9.12
2023-03-22T05:32:43.369Z,9.13
2023-03-22T05:33:30.403Z,9.16
2023-03-22T05:34:17.628Z,9.22
2023-03-22T05:35:05.604Z,9.27
2023-03-22T05:35:52.760Z,9.31
2023-03-22T05:36:39.989Z,9.31
2023-03-22T05:37:26.971Z,9.32
2023-03-22T05:38:13.960Z,9.33
2023-03-22T05:39:00.842Z,9.35
2023-03-22T05:39:47.956Z,9.40
2023-03-22T05:40:34.969Z,9.41
2023-03-22T05:41:22.274Z,9.43
2023-03-22T05:42:09.254Z,9.47
2023-03-22T05:42:56.333Z,9.50
2023-03-22T05:43:43.314Z,9.51
2023-03-22T05:44:30.515Z,9.55
2023-03-22T05:45:17.893Z,9.59
2023-03-22T05:46:06.824Z,9.61
2023-03-22T05:46:53.882Z,9.69
2023-03-22T05:47:41.891Z,9.71
2023-03-22T05:48:28.944Z,9.77
2023-03-22T05:49:16.277Z,9.77
2023-03-22T05:50:03.417Z,9.76
2023-03-22T05:50:50.390Z,9.76
2023-03-22T05:51:41.873Z,9.73
2023-03-22T05:52:29.059Z,9.71
2023-03-22T05:53:16.364Z,9.78
2023-03-22T05:54:03.295Z,9.70
2023-03-22T05:54:50.260Z,9.70
2023-03-22T05:55:37.268Z,9.65
2023-03-22T05:56:24.680Z,9.60
2023-03-22T05:57:11.758Z,9.58
2023-03-22T05:57:59.979Z,9.58
2023-03-22T05:58:47.165Z,9.56
2023-03-22T05:59:34.334Z,9.61
2023-03-22T06:00:22.079Z,9.67
2023-03-22T06:01:11.852Z,9.56
2023-03-22T06:01:58.904Z,9.58
2023-03-22T06:02:48.088Z,9.69
2023-03-22T06:03:35.244Z,9.77
2023-03-22T06:04:22.487Z,9.78
2023-03-22T06:05:11.430Z,9.79
2023-03-22T06:05:58.407Z,9.82
2023-03-22T06:06:45.379Z,9.91
2023-03-22T06:07:32.329Z,9.94
2023-03-22T06:08:19.236Z,9.95
2023-03-22T06:09:16.376Z,9.97
2023-03-22T06:10:04.829Z,10.00
2023-03-22T06:10:52.628Z,9.92
2023-03-22T06:11:39.551Z,9.88
2023-03-22T06:12:29.540Z,9.92
2023-03-22T06:13:18.148Z,9.98
2023-03-22T06:14:05.174Z,10.06
2023-03-22T06:14:52.676Z,10.09
2023-03-22T06:15:39.658Z,10.02
2023-03-22T06:16:26.859Z,10.06
2023-03-22T06:17:13.887Z,10.13
2023-03-22T06:18:00.967Z,10.16
2023-03-22T06:18:48.064Z,10.17
2023-03-22T06:19:35.055Z,10.19
2023-03-22T06:20:22.079Z,10.21
2023-03-22T06:21:09.102Z,10.22
2023-03-22T06:21:56.131Z,10.22
2023-03-22T06:22:43.170Z,10.29
2023-03-22T06:23:30.143Z,10.35
2023-03-22T06:24:17.215Z,10.41
2023-03-22T06:25:44.525Z,10.38
2023-03-22T06:26:31.481Z,10.52
2023-03-22T06:27:18.437Z,10.52
2023-03-22T06:28:07.552Z,10.51
2023-03-22T06:28:55.510Z,10.53
2023-03-22T06:29:42.446Z,10.58
2023-03-22T06:30:29.575Z,10.67
2023-03-22T06:31:16.519Z,10.59
2023-03-22T06:32:04.002Z,10.63
2023-03-22T06:32:50.903Z,10.69
2023-03-22T06:33:37.804Z,10.75
2023-03-22T06:34:24.666Z,10.85
2023-03-22T06:35:11.605Z,10.88
2023-03-22T06:35:59.944Z,10.98
2023-03-22T06:36:47.040Z,10.95
2023-03-22T06:37:33.880Z,10.96
2023-03-22T06:38:20.802Z,11.03
2023-03-22T06:39:08.193Z,11.12
2023-03-22T06:39:55.078Z,11.20
2023-03-22T06:40:42.229Z,11.20
2023-03-22T06:41:29.311Z,11.25
2023-03-22T06:42:16.409Z,11.30
2023-03-22T06:43:06.974Z,11.34
2023-03-22T06:43:53.908Z,11.38
2023-03-22T06:44:44.066Z,11.47
2023-03-22T06:45:33.605Z,11.53
2023-03-22T06:46:22.743Z,11.60
2023-03-22T06:47:09.809Z,11.66
2023-03-22T06:47:58.747Z,11.69
2023-03-22T06:48:45.763Z,11.78
2023-03-22T06:49:32.628Z,11.85
2023-03-22T06:50:19.481Z,11.87
2023-03-22T06:51:06.811Z,11.93
2023-03-22T06:51:54.107Z,11.87
2023-03-22T06:52:40.972Z,11.91
2023-03-22T06:53:27.928Z,12.02
2023-03-22T06:54:16.246Z,12.11
2023-03-22T06:55:03.246Z,12.19
2023-03-22T06:55:50.162Z,12.28
2023-03-22T06:56:37.020Z,12.32
2023-03-22T06:57:23.852Z,12.33
2023-03-22T06:58:10.891Z,12.26
2023-03-22T06:58:58.726Z,12.32
2023-03-22T06:59:45.774Z,12.38
2023-03-22T07:00:34.485Z,12.46
2023-03-22T07:01:21.877Z,12.46
2023-03-22T07:02:12.026Z,12.50
2023-03-22T07:03:01.708Z,12.51
2023-03-22T07:03:48.647Z,12.54
2023-03-22T07:04:35.606Z,12.58
2023-03-22T07:05:22.578Z,12.65
2023-03-22T07:06:09.674Z,12.75
2023-03-22T07:06:57.149Z,12.71
2023-03-22T07:07:44.086Z,12.82
2023-03-22T07:08:31.317Z,12.87
2023-03-22T07:09:18.568Z,12.87
2023-03-22T07:10:10.019Z,12.99
2023-03-22T07:10:57.152Z,13.08
2023-03-22T07:11:44.011Z,13.09
2023-03-22T07:12:30.868Z,13.19
2023-03-22T07:13:17.934Z,13.29
2023-03-22T07:14:04.867Z,13.46
2023-03-22T07:14:51.815Z,13.46
2023-03-22T07:15:38.736Z,13.33
2023-03-22T07:16:25.943Z,13.38
2023-03-22T07:17:14.350Z,13.45
2023-03-22T07:18:02.180Z,13.56
2023-03-22T07:18:49.170Z,13.62
2023-03-22T07:19:36.284Z,13.59
2023-03-22T07:20:25.187Z,13.61
2023-03-22T07:21:12.475Z,13.68
2023-03-22T07:21:59.382Z,13.64
2023-03-22T07:22:46.711Z,13.70
2023-03-22T07:23:33.588Z,13.83
2023-03-22T07:24:20.546Z,13.89
2023-03-22T07:25:07.796Z,13.91
2023-03-22T07:25:56.275Z,14.01
2023-03-22T07:26:43.361Z,14.11
2023-03-22T07:27:30.237Z,14.18
2023-03-22T07:28:17.197Z,14.21
2023-03-22T07:29:04.077Z,14.25
2023-03-22T07:29:51.196Z,14.22
2023-03-22T07:30:39.051Z,14.20
2023-03-22T07:31:26.298Z,14.16
2023-03-22T07:32:13.266Z,14.22
2023-03-22T07:33:00.865Z,14.26
2023-03-22T07:33:48.595Z,14.07
2023-03-22T07:34:35.547Z,14.03
2023-03-22T07:35:24.496Z,14.04
2023-03-22T07:36:13.128Z,14.18
2023-03-22T07:37:02.100Z,14.36
2023-03-22T07:37:49.099Z,14.45
2023-03-22T07:38:36.181Z,14.54
2023-03-22T07:39:25.019Z,14.62
2023-03-22T07:40:12.660Z,14.62
2023-03-22T07:40:59.529Z,14.32
2023-03-22T07:41:46.534Z,14.43
2023-03-22T07:42:37.126Z,14.57
2023-03-22T07:43:24.222Z,14.72
2023-03-22T07:44:17.607Z,14.73
2023-03-22T07:45:05.504Z,14.77
2023-03-22T07:45:53.351Z,14.75
2023-03-22T07:46:40.352Z,14.82
2023-03-22T07:47:40.437Z,14.86
2023-03-22T07:48:29.027Z,14.78
2023-03-22T07:49:16.012Z,14.75
2023-03-22T07:50:02.985Z,14.89
2023-03-22T07:50:50.404Z,15.02
2023-03-22T07:51:37.235Z,14.76
2023-03-22T07:52:24.085Z,14.83
2023-03-22T07:53:11.566Z,14.79
2023-03-22T07:53:58.466Z,14.98
2023-03-22T07:54:45.556Z,15.17
2023-03-22T07:55:32.356Z,15.32
2023-03-22T07:56:19.210Z,15.33
2023-03-22T07:57:06.967Z,15.32
2023-03-22T07:57:58.030Z,15.34
2023-03-22T07:58:44.993Z,15.29
2023-03-22T07:59:32.242Z,15.32
2023-03-22T08:00:19.547Z,15.49
2023-03-22T08:01:09.246Z,15.66
2023-03-22T08:01:56.161Z,15.58
2023-03-22T08:02:46.050Z,15.04
2023-03-22T08:03:35.221Z,15.08
2023-03-22T08:04:22.762Z,15.13
2023-03-22T08:05:09.868Z,15.16
2023-03-22T08:06:01.377Z,15.15
2023-03-22T08:06:49.321Z,15.30
2023-03-22T08:07:36.472Z,15.30
2023-03-22T08:08:23.392Z,15.45
2023-03-22T08:09:12.333Z,15.35
2023-03-22T08:09:59.401Z,15.49
2023-03-22T08:10:49.829Z,15.56
2023-03-22T08:11:36.947Z,15.64
2023-03-22T08:12:23.925Z,15.76
2023-03-22T08:13:10.776Z,15.83
2023-03-22T08:13:57.686Z,15.76
2023-03-22T08:14:48.400Z,15.84
2023-03-22T08:15:37.613Z,15.74
2023-03-22T08:16:24.573Z,15.65
2023-03-22T08:17:11.666Z,15.37
2023-03-22T08:17:58.634Z,15.43
2023-03-22T08:18:45.745Z,15.49
2023-03-22T08:19:34.006Z,15.46
2023-03-22T08:20:20.926Z,15.51
2023-03-22T08:21:08.057Z,15.62
2023-03-22T08:21:54.972Z,15.51
2023-03-22T08:22:42.634Z,15.30
2023-03-22T08:23:40.974Z,15.52
2023-03-22T08:24:28.563Z,15.86
2023-03-22T08:25:15.774Z,15.85
2023-03-22T08:26:02.859Z,15.93
2023-03-22T08:26:52.573Z,16.14
2023-03-22T08:27:39.592Z,16.02
2023-03-22T08:28:26.638Z,16.13
2023-03-22T08:29:13.515Z,16.12
2023-03-22T08:30:01.162Z,16.11
2023-03-22T08:30:48.886Z,16.08
2023-03-22T08:31:35.828Z,16.30
2023-03-22T08:32:22.688Z,16.44
2023-03-22T08:33:09.504Z,16.49
2023-03-22T08:33:56.424Z,16.67
2023-03-22T08:34:43.877Z,16.82
2023-03-22T08:35:32.908Z,16.93
2023-03-22T08:36:22.950Z,16.96
2023-03-22T08:37:11.242Z,17.03
2023-03-22T08:37:58.334Z,16.97
2023-03-22T08:38:45.574Z,17.03
2023-03-22T08:39:33.053Z,17.13
2023-03-22T08:40:20.125Z,17.08
2023-03-22T08:41:07.246Z,16.61
2023-03-22T08:41:54.115Z,16.62
2023-03-22T08:42:41.175Z,16.78
2023-03-22T08:43:28.096Z,16.71
2023-03-22T08:44:14.977Z,16.88
2023-03-22T08:45:01.923Z,17.04
2023-03-22T08:45:51.045Z,17.24
2023-03-22T08:46:37.935Z,17.41
2023-03-22T08:47:24.791Z,17.34
2023-03-22T08:48:11.779Z,17.39
2023-03-22T08:49:00.577Z,17.37
2023-03-22T08:49:47.432Z,17.40
2023-03-22T08:50:35.163Z,17.50
2023-03-22T08:51:23.199Z,17.62
2023-03-22T08:52:10.728Z,17.87
2023-03-22T08:52:58.265Z,18.03
2023-03-22T08:53:45.740Z,18.16
2023-03-22T08:54:37.550Z,18.20
2023-03-22T08:55:25.132Z,18.11
2023-03-22T08:56:15.136Z,18.17
2023-03-22T08:57:03.550Z,18.25
2023-03-22T08:57:50.775Z,18.37
2023-03-22T08:58:37.690Z,18.43
2023-03-22T08:59:24.605Z,18.63
2023-03-22T09:00:13.872Z,18.32
2023-03-22T09:01:00.920Z,18.09
2023-03-22T09:01:52.002Z,18.10
2023-03-22T09:02:38.902Z,18.11
2023-03-22T09:03:25.974Z,18.29
2023-03-22T09:04:12.873Z,18.51
2023-03-22T09:04:59.812Z,18.57
2023-03-22T09:05:46.954Z,18.69
2023-03-22T09:06:34.474Z,18.80
2023-03-22T09:07:21.677Z,18.80
2023-03-22T09:08:08.922Z,18.69
2023-03-22T09:08:56.389Z,18.30
2023-03-22T09:09:43.789Z,18.44
2023-03-22T09:10:30.732Z,18.49
2023-03-22T09:11:18.209Z,18.55
2023-03-22T09:12:05.476Z,18.51
2023-03-22T09:12:54.372Z,18.67
2023-03-22T09:13:41.254Z,18.32
2023-03-22T09:14:28.230Z,18.35
2023-03-22T09:15:15.232Z,18.57
2023-03-22T09:16:02.175Z,18.72
2023-03-22T09:16:49.152Z,18.83
2023-03-22T09:17:36.601Z,18.81
2023-03-22T09:18:28.664Z,18.85
2023-03-22T09:19:15.669Z,19.04
2023-03-22T09:20:12.149Z,19.10
2023-03-22T09:20:59.948Z,19.28
2023-03-22T09:21:46.771Z,19.38
2023-03-22T09:22:33.920Z,19.40
2023-03-22T09:23:21.011Z,19.40
2023-03-22T09:24:08.796Z,19.30
2023-03-22T09:24:55.711Z,19.09
2023-03-22T09:25:46.451Z,18.83
2023-03-22T09:26:33.247Z,18.95
2023-03-22T09:27:20.132Z,18.92
2023-03-22T09:28:07.167Z,18.71
2023-03-22T09:28:56.221Z,18.86
2023-03-22T09:29:43.130Z,18.75
2023-03-22T09:30:30.562Z,18.77
2023-03-22T09:31:20.350Z,18.63
2023-03-22T09:32:07.509Z,18.59
2023-03-22T09:32:54.998Z,18.57
2023-03-22T09:33:42.404Z,18.89
2023-03-22T09:34:29.544Z,19.18
2023-03-22T09:35:16.770Z,19.28
2023-03-22T09:36:04.274Z,19.24
2023-03-22T09:36:53.002Z,19.35
2023-03-22T09:37:39.948Z,18.88
2023-03-22T09:38:27.476Z,18.83
2023-03-22T09:39:16.643Z,19.09
2023-03-22T09:40:06.031Z,19.14
2023-03-22T09:41:01.808Z,19.25
2023-03-22T09:42:01.359Z,19.37
2023-03-22T09:42:53.009Z,19.54
2023-03-22T09:43:42.851Z,19.24
2023-03-22T09:44:29.696Z,19.38
2023-03-22T09:45:27.282Z,19.54
2023-03-22T09:46:17.566Z,19.34
2023-03-22T09:47:05.933Z,19.41
2023-03-22T09:47:54.960Z,18.97
2023-03-22T09:48:43.227Z,19.06
2023-03-22T09:49:47.214Z,19.10
2023-03-22T09:50:45.479Z,19.12
2023-03-22T09:51:48.477Z,19.25
2023-03-22T09:52:35.483Z,19.00
2023-03-22T09:53:24.736Z,19.17
2023-03-22T09:54:25.429Z,19.07
2023-03-22T09:55:38.386Z,18.74
2023-03-22T09:56:28.110Z,18.88
2023-03-22T09:57:37.476Z,19.14
2023-03-22T09:58:51.147Z,19.17
2023-03-22T09:59:46.886Z,19.07
2023-03-22T10:01:28.869Z,19.02
2023-03-22T10:02:44.402Z,19.01
2023-03-22T10:04:02.442Z,19.14
2023-03-22T10:05:18.597Z,18.65
2023-03-22T10:06:06.166Z,18.76
2023-03-22T10:07:04.390Z,18.85
2023-03-22T10:08:12.730Z,18.65
2023-03-22T10:09:11.179Z,18.68
2023-03-22T10:10:08.900Z,18.80
2023-03-22T10:10:57.929Z,18.84
2023-03-22T10:11:47.485Z,18.96
2023-03-22T10:12:56.577Z,19.09
2023-03-22T10:13:56.605Z,19.23
2023-03-22T10:14:53.350Z,19.02
2023-03-22T10:15:56.095Z,18.82
2023-03-22T10:16:43.698Z,19.02
2023-03-22T10:17:30.968Z,19.19
2023-03-22T10:18:26.731Z,19.23
2023-03-22T10:19:35.923Z,19.28
2023-03-22T10:20:49.937Z,19.17
2023-03-22T10:21:36.959Z,19.38
2023-03-22T10:22:31.610Z,19.11
2023-03-22T10:23:35.444Z,19.34
2023-03-22T10:24:30.284Z,19.48
2023-03-22T10:25:22.625Z,19.31
2023-03-22T10:26:17.842Z,19.36
2023-03-22T10:27:13.901Z,19.32
2023-03-22T10:28:00.918Z,19.43
2023-03-22T10:28:53.597Z,19.37
2023-03-22T10:29:43.950Z,19.32
2023-03-22T10:30:34.992Z,19.25
2023-03-22T10:31:22.345Z,19.25
2023-03-22T10:32:56.436Z,19.20
2023-03-22T10:33:53.428Z,19.08
2023-03-22T10:34:40.483Z,19.06
2023-03-22T10:35:28.039Z,19.10
2023-03-22T10:36:16.716Z,19.18
2023-03-22T10:37:04.608Z,19.27
2023-03-22T10:37:52.192Z,19.25
2023-03-22T10:38:48.915Z,19.28
2023-03-22T10:39:40.089Z,19.40
2023-03-22T10:40:29.909Z,19.39
2023-03-22T10:41:18.759Z,19.36
2023-03-22T10:42:16.379Z,19.25
2023-03-22T10:43:06.619Z,19.16
2023-03-22T10:43:59.229Z,19.15
2023-03-22T10:44:51.748Z,19.15
2023-03-22T10:45:40.358Z,19.09
2023-03-22T10:46:36.313Z,19.15
2023-03-22T10:47:48.907Z,19.10
2023-03-22T10:48:39.858Z,19.04
2023-03-22T10:49:34.227Z,19.02
2023-03-22T10:50:33.027Z,18.85
2023-03-22T10:52:02.153Z,19.01
2023-03-22T10:53:08.740Z,19.14
2023-03-22T10:53:58.469Z,18.84
2023-03-22T10:54:45.562Z,18.87
2023-03-22T10:55:32.750Z,18.97
2023-03-22T10:56:21.532Z,19.02
2023-03-22T10:57:10.752Z,18.88
2023-03-22T10:58:19.156Z,19.01
2023-03-22T10:59:06.333Z,18.97
2023-03-22T10:59:57.136Z,18.96
2023-03-22T11:00:49.601Z,18.87
2023-03-22T11:01:38.118Z,18.90